Accueil
METAR-TAF:

METAR-TAF

Aéroports :

Aéroport international de Cambridge

Cambridge, Angleterre

latitude: 52-12N, longitude: 000-11E, altitude: 15 m

Observation

Le bulletin a été fait il y a 10 heures et 12 minutes, à 16:50 UTC
Vent 10 kt de ouest/sud-ouest
Température 20°C
Humidité 49%
Pression 1013 hPa
Visibilité 10 km ou plus
Quelques nuages à une hauteur de 3000 ft

METAR: EGSC 161650Z 25010KT 9999 FEW030 20/09 Q1013

Heure: 04:02 (03:02 UTC)

Prévision

Le bulletin a été fait il y a 13 heures et 4 minutes, à 13:58 UTC
Prévision valable du 16 à 15 UTC au 16 à 19 UTC
Vent 7 kt de sud/sud-ouest
Visibilité 10 km ou plus
Nuages épars à une hauteur de 3000 ft

TAF: EGSC 161358Z 1615/1619 21007KT 9999 SCT030

Observations et prévisions météorologiques de plus de 4000 aéroports (messages METAR et TAF).

Les stations disponibles sont représentées par des disques jaunes et rouges sur la carte.

Passer la souris dessus pour voir le nom de la station.

Cliquer dessus pour voir les observations et prévisions météorologiques.

Pour changer de carte: cliquez sur les boutons verts avec une croix noire pour zoomer, sur le bouton vert avec un tiret pour effectuer un zoom arrière, ou sur les flèches vertes pour les cartes adjacentes.


METAR-TAF: